Golden Princess — ZCDA9 — position and weather

sailwx.info

Track history (hours):
 
Tides and Currents Weather Stations Pressure Air Temp Water Temp Dewpoint Dewpoint Depression Visibility Wind Speed Wind Dir Waves Ship Positions

Golden Princess

Operator: Princess Cruises

Last reported at 2014-Sep-21 23:33 UTC. Time now 2014-Sep-22 00:10 UTC.
Position N 49°17' W 123°06'.

Length 289.6 m; beam 36 m; draft 8.5 m.

Type: Ship. MMSI: 310344000.

Date/timePositionNaut miles runAvg speedWind from/ knotsBaromVisibWave heightAir tempDewpointWater temp
2014-Sep-21 23:33N 49°17' W 123°06'0 0.0
2014-Sep-21 22:33N 49°17' W 123°06'0 0.0
2014-Sep-21 21:33N 49°17' W 123°06'0 0.0
2014-Sep-21 20:33N 49°17' W 123°06'0 0.0
2014-Sep-21 19:33N 49°17' W 123°06'0 0.0
2014-Sep-21 18:33N 49°17' W 123°06'0 0.0
2014-Sep-21 17:33N 49°17' W 123°06'0 0.0
2014-Sep-21 16:33N 49°17' W 123°06'0 0.0
2014-Sep-21 15:33N 49°17' W 123°06'0 0.0
2014-Sep-21 14:33N 49°17' W 123°06'0 0.2
2014-Sep-21 13:34N 49°17' W 123°06'5 4.9
2014-Sep-21 12:33N 49°19' W 123°13'10 9.7
2014-Sep-21 11:33N 49°10' W 123°20'1111.4
2014-Sep-21 10:33N 48°59' W 123°13'1313.1
2014-Sep-21 09:33N 48°50' W 122°58'1514.6
2014-Sep-21 08:33N 48°41' W 123°15'1414.0
2014-Sep-21 07:33N 48°27' W 123°10'1010.0
2014-Sep-21 06:33N 48°22' W 123°22'6 5.9
2014-Sep-21 05:33N 48°16' W 123°26'8 8.4
2014-Sep-21 04:33N 48°08' W 123°21'1312.7
2014-Sep-21 03:33N 48°13' W 123°03'1212.0
2014-Sep-21 02:33N 48°11' W 122°46'1211.7
2014-Sep-21 01:33N 48°01' W 122°37'1211.9
2014-Sep-21 00:34N 47°51' W 122°27'1312.8
2014-Sep-20 23:31N 47°37' W 122°25'2 1.6
2014-Sep-20 22:32N 47°38' W 122°23'0 0.0
2014-Sep-20 21:32N 47°38' W 122°23'0 0.0
2014-Sep-20 20:33N 47°38' W 122°23'0 0.0
2014-Sep-20 19:31N 47°38' W 122°23'0 0.0
2014-Sep-20 18:33N 47°38' W 122°23'0 0.0
2014-Sep-20 17:33N 47°38' W 122°23'0 0.0
2014-Sep-20 16:32N 47°38' W 122°23'0 0.0
2014-Sep-20 15:26N 47°38' W 122°23'0 0.0
2014-Sep-20 14:31N 47°38' W 122°23'0 0.0
2014-Sep-20 13:31N 47°38' W 122°23'3 3.3
2014-Sep-20 12:33N 47°38' W 122°28'1212.2
2014-Sep-20 11:33N 47°51' W 122°28'1313.0
2014-Sep-20 10:33N 48°02' W 122°38'1514.5
2014-Sep-20 09:33N 48°11' W 122°55'1616.3
2014-Sep-20 08:33N 48°11' W 123°19'1110.5
2014-Sep-20 07:33N 48°20' W 123°27'6 3.8
2014-Sep-20 06:05N 48°25' W 123°23'0 0.0
2014-Sep-20 05:08N 48°25' W 123°23'0 0.0
2014-Sep-20 04:28N 48°25' W 123°23'0 0.0
2014-Sep-20 03:27N 48°25' W 123°23'0 0.3
2014-Sep-20 02:33N 48°25' W 123°24'1010.1
2014-Sep-20 01:33N 48°15' W 123°27'2020.2
2014-Sep-20 00:33N 48°15' W 123°58'2120.6
2014-Sep-19 23:33N 48°23' W 124°26'2120.4
2014-Sep-19 22:33N 48°29' W 124°56'1919.7
2014-Sep-19 21:33N 48°34' W 125°24'2121.2
2014-Sep-19 20:33N 48°44' W 125°52'2120.6
2014-Sep-19 19:33N 48°57' W 126°17'2120.8
2014-Sep-19 18:33N 49°09' W 126°42'34219.7
2014-Sep-19 01:13N 54°10' W 131°03'27811.2
2014-Sep-18 00:26N 58°10' W 135°18'1819.9
2014-Sep-17 23:33N 58°18' W 135°47'1413.9
2014-Sep-17 22:34N 58°30' W 136°03'1918.3
2014-Sep-17 21:33N 58°46' W 136°21'8 1.5
2014-Sep-17 16:29N 58°50' W 136°33'1718.5
2014-Sep-17 15:33N 58°39' W 136°08'1515.2
2014-Sep-17 14:34N 58°25' W 135°57'8 8.1
2014-Sep-17 13:33N 58°18' W 135°48'1110.9
2014-Sep-17 12:33N 58°15' W 135°29'  
2014-Sep-14 11:07N 49°33' W 127°08'1221.1
2014-Sep-14 10:33N 49°25' W 126°55'2121.1
2014-Sep-14 09:33N 49°11' W 126°30'2221.7
2014-Sep-14 08:33N 48°60' W 126°02'2221.8
2014-Sep-14 07:34N 48°48' W 125°35'2222.1
2014-Sep-14 06:34N 48°38' W 125°05'2322.8
2014-Sep-14 05:32N 48°28' W 124°33'2222.7
2014-Sep-14 04:33N 48°19' W 124°02'2222.0
2014-Sep-14 03:33N 48°14' W 123°30'1514.9
2014-Sep-14 02:33N 48°13' W 123°08'1919.2
2014-Sep-14 01:33N 48°07' W 122°40'32 7.8
2014-Sep-13 21:31N 47°38' W 122°23'0 0.0
2014-Sep-13 20:31N 47°38' W 122°23'0 0.0
2014-Sep-13 19:33N 47°38' W 122°23'0 0.0
2014-Sep-13 18:33N 47°38' W 122°23'0 0.0
2014-Sep-13 17:32N 47°38' W 122°23'0 0.0
2014-Sep-13 16:32N 47°38' W 122°23'0 0.0
2014-Sep-13 15:31N 47°38' W 122°23'0 0.0
2014-Sep-13 14:31N 47°38' W 122°23'0 0.0
2014-Sep-13 13:31N 47°38' W 122°23'3 3.6
2014-Sep-13 12:33N 47°39' W 122°28'1212.5
2014-Sep-13 11:33N 47°51' W 122°29'1615.5
2014-Sep-13 10:33N 48°05' W 122°39'1717.2
2014-Sep-13 09:33N 48°12' W 123°03'1414.4
2014-Sep-13 08:33N 48°10' W 123°24'1212.2
2014-Sep-13 07:33N 48°22' W 123°25'3 2.8
2014-Sep-13 06:31N 48°25' W 123°23'0 0.0
2014-Sep-13 05:33N 48°25' W 123°23'0 0.0
2014-Sep-13 04:33N 48°25' W 123°23'0 0.0
2014-Sep-13 03:32N 48°25' W 123°23'0 0.0
2014-Sep-13 02:32N 48°25' W 123°23'1 0.7
2014-Sep-13 01:33N 48°25' W 123°24'1110.5
2014-Sep-13 00:33N 48°15' W 123°29'1919.4
2014-Sep-12 23:34N 48°15' W 123°58'2221.6
2014-Sep-12 22:33N 48°24' W 124°28'2120.6
2014-Sep-12 21:33N 48°29' W 124°58'2020.5
2014-Sep-12 20:33N 48°35' W 125°28'2121.3
2014-Sep-12 19:34N 48°46' W 125°55'2221.6
2014-Sep-12 18:33N 48°59' W 126°21'2221.6
2014-Sep-12 17:33N 49°12' W 126°47'2221.2
2014-Sep-12 16:32N 49°26' W 127°13'18921.0
2014-Sep-12 07:33N 51°58' W 130°09'2121.0
2014-Sep-12 06:33N 52°18' W 130°20'2221.4
2014-Sep-12 05:32N 52°39' W 130°32'  
Track history (hours):
 
Tides and Currents Weather Stations Pressure Air Temp Water Temp Dewpoint Dewpoint Depression Visibility Wind Speed Wind Dir Waves Ship Positions

Golden Princess

Operator: Princess Cruises

Last reported at 2014-Sep-21 23:33 UTC. Time now 2014-Sep-22 00:10 UTC.
Position N 49°17' W 123°06'.

Length 289.6 m; beam 36 m; draft 8.5 m.

Type: Ship. MMSI: 310344000.

Date/timePositionNaut miles runAvg speedWind from/ knotsBaromVisibWave heightAir tempDewpointWater temp
2014-Sep-21 23:33N 49°17' W 123°06'0 0.0
2014-Sep-21 22:33N 49°17' W 123°06'0 0.0
2014-Sep-21 21:33N 49°17' W 123°06'0 0.0
2014-Sep-21 20:33N 49°17' W 123°06'0 0.0
2014-Sep-21 19:33N 49°17' W 123°06'0 0.0
2014-Sep-21 18:33N 49°17' W 123°06'0 0.0
2014-Sep-21 17:33N 49°17' W 123°06'0 0.0
2014-Sep-21 16:33N 49°17' W 123°06'0 0.0
2014-Sep-21 15:33N 49°17' W 123°06'0 0.0
2014-Sep-21 14:33N 49°17' W 123°06'0 0.2
2014-Sep-21 13:34N 49°17' W 123°06'5 4.9
2014-Sep-21 12:33N 49°19' W 123°13'10 9.7
2014-Sep-21 11:33N 49°10' W 123°20'1111.4
2014-Sep-21 10:33N 48°59' W 123°13'1313.1
2014-Sep-21 09:33N 48°50' W 122°58'1514.6
2014-Sep-21 08:33N 48°41' W 123°15'1414.0
2014-Sep-21 07:33N 48°27' W 123°10'1010.0
2014-Sep-21 06:33N 48°22' W 123°22'6 5.9
2014-Sep-21 05:33N 48°16' W 123°26'8 8.4
2014-Sep-21 04:33N 48°08' W 123°21'1312.7
2014-Sep-21 03:33N 48°13' W 123°03'1212.0
2014-Sep-21 02:33N 48°11' W 122°46'1211.7
2014-Sep-21 01:33N 48°01' W 122°37'1211.9
2014-Sep-21 00:34N 47°51' W 122°27'1312.8
2014-Sep-20 23:31N 47°37' W 122°25'2 1.6
2014-Sep-20 22:32N 47°38' W 122°23'0 0.0
2014-Sep-20 21:32N 47°38' W 122°23'0 0.0
2014-Sep-20 20:33N 47°38' W 122°23'0 0.0
2014-Sep-20 19:31N 47°38' W 122°23'0 0.0
2014-Sep-20 18:33N 47°38' W 122°23'0 0.0
2014-Sep-20 17:33N 47°38' W 122°23'0 0.0
2014-Sep-20 16:32N 47°38' W 122°23'0 0.0
2014-Sep-20 15:26N 47°38' W 122°23'0 0.0
2014-Sep-20 14:31N 47°38' W 122°23'0 0.0
2014-Sep-20 13:31N 47°38' W 122°23'3 3.3
2014-Sep-20 12:33N 47°38' W 122°28'1212.2
2014-Sep-20 11:33N 47°51' W 122°28'1313.0
2014-Sep-20 10:33N 48°02' W 122°38'1514.5
2014-Sep-20 09:33N 48°11' W 122°55'1616.3
2014-Sep-20 08:33N 48°11' W 123°19'1110.5
2014-Sep-20 07:33N 48°20' W 123°27'6 3.8
2014-Sep-20 06:05N 48°25' W 123°23'0 0.0
2014-Sep-20 05:08N 48°25' W 123°23'0 0.0
2014-Sep-20 04:28N 48°25' W 123°23'0 0.0
2014-Sep-20 03:27N 48°25' W 123°23'0 0.3
2014-Sep-20 02:33N 48°25' W 123°24'1010.1
2014-Sep-20 01:33N 48°15' W 123°27'2020.2
2014-Sep-20 00:33N 48°15' W 123°58'2120.6
2014-Sep-19 23:33N 48°23' W 124°26'2120.4
2014-Sep-19 22:33N 48°29' W 124°56'1919.7
2014-Sep-19 21:33N 48°34' W 125°24'2121.2
2014-Sep-19 20:33N 48°44' W 125°52'2120.6
2014-Sep-19 19:33N 48°57' W 126°17'2120.8
2014-Sep-19 18:33N 49°09' W 126°42'34219.7
2014-Sep-19 01:13N 54°10' W 131°03'27811.2
2014-Sep-18 00:26N 58°10' W 135°18'1819.9
2014-Sep-17 23:33N 58°18' W 135°47'1413.9
2014-Sep-17 22:34N 58°30' W 136°03'1918.3
2014-Sep-17 21:33N 58°46' W 136°21'8 1.5
2014-Sep-17 16:29N 58°50' W 136°33'1718.5
2014-Sep-17 15:33N 58°39' W 136°08'1515.2
2014-Sep-17 14:34N 58°25' W 135°57'8 8.1
2014-Sep-17 13:33N 58°18' W 135°48'1110.9
2014-Sep-17 12:33N 58°15' W 135°29'  
2014-Sep-14 11:07N 49°33' W 127°08'1221.1
2014-Sep-14 10:33N 49°25' W 126°55'2121.1
2014-Sep-14 09:33N 49°11' W 126°30'2221.7
2014-Sep-14 08:33N 48°60' W 126°02'2221.8
2014-Sep-14 07:34N 48°48' W 125°35'2222.1
2014-Sep-14 06:34N 48°38' W 125°05'2322.8
2014-Sep-14 05:32N 48°28' W 124°33'2222.7
2014-Sep-14 04:33N 48°19' W 124°02'2222.0
2014-Sep-14 03:33N 48°14' W 123°30'1514.9
2014-Sep-14 02:33N 48°13' W 123°08'1919.2
2014-Sep-14 01:33N 48°07' W 122°40'32 7.8
2014-Sep-13 21:31N 47°38' W 122°23'0 0.0
2014-Sep-13 20:31N 47°38' W 122°23'0 0.0
2014-Sep-13 19:33N 47°38' W 122°23'0 0.0
2014-Sep-13 18:33N 47°38' W 122°23'0 0.0
2014-Sep-13 17:32N 47°38' W 122°23'0 0.0
2014-Sep-13 16:32N 47°38' W 122°23'0 0.0
2014-Sep-13 15:31N 47°38' W 122°23'0 0.0
2014-Sep-13 14:31N 47°38' W 122°23'0 0.0
2014-Sep-13 13:31N 47°38' W 122°23'3 3.6
2014-Sep-13 12:33N 47°39' W 122°28'1212.5
2014-Sep-13 11:33N 47°51' W 122°29'1615.5
2014-Sep-13 10:33N 48°05' W 122°39'1717.2
2014-Sep-13 09:33N 48°12' W 123°03'1414.4
2014-Sep-13 08:33N 48°10' W 123°24'1212.2
2014-Sep-13 07:33N 48°22' W 123°25'3 2.8
2014-Sep-13 06:31N 48°25' W 123°23'0 0.0
2014-Sep-13 05:33N 48°25' W 123°23'0 0.0
2014-Sep-13 04:33N 48°25' W 123°23'0 0.0
2014-Sep-13 03:32N 48°25' W 123°23'0 0.0
2014-Sep-13 02:32N 48°25' W 123°23'1 0.7
2014-Sep-13 01:33N 48°25' W 123°24'1110.5
2014-Sep-13 00:33N 48°15' W 123°29'1919.4
2014-Sep-12 23:34N 48°15' W 123°58'2221.6
2014-Sep-12 22:33N 48°24' W 124°28'2120.6
2014-Sep-12 21:33N 48°29' W 124°58'2020.5
2014-Sep-12 20:33N 48°35' W 125°28'2121.3
2014-Sep-12 19:34N 48°46' W 125°55'2221.6
2014-Sep-12 18:33N 48°59' W 126°21'2221.6
2014-Sep-12 17:33N 49°12' W 126°47'2221.2
2014-Sep-12 16:32N 49°26' W 127°13'18921.0
2014-Sep-12 07:33N 51°58' W 130°09'2121.0
2014-Sep-12 06:33N 52°18' W 130°20'2221.4
2014-Sep-12 05:32N 52°39' W 130°32'  

Dump ship's entire track history